createdAt,value
2023-01-29T00:01:48.204Z,28.17
2023-01-29T00:04:49.797Z,28.67
2023-01-29T00:07:51.442Z,30.93
2023-01-29T00:10:53.152Z,27.87
2023-01-29T00:13:54.813Z,24.03
2023-01-29T00:16:56.479Z,29.37
2023-01-29T00:19:58.175Z,30.23
2023-01-29T00:22:59.846Z,23.97
2023-01-29T00:26:01.530Z,22.63
2023-01-29T00:29:03.107Z,23.60
2023-01-29T00:32:05.281Z,22.60
2023-01-29T00:35:07.403Z,22.50
2023-01-29T00:38:09.159Z,22.73
2023-01-29T00:41:30.377Z,22.77
2023-01-29T00:44:50.597Z,20.83
2023-01-29T00:47:52.227Z,22.03
2023-01-29T00:50:53.773Z,22.13
2023-01-29T00:53:58.328Z,24.60
2023-01-29T00:57:00.409Z,20.80
2023-01-29T01:00:03.609Z,23.87
2023-01-29T01:03:08.333Z,25.47
2023-01-29T01:06:10.646Z,26.87
2023-01-29T01:09:30.915Z,21.67
2023-01-29T01:12:32.698Z,23.23
2023-01-29T01:15:36.343Z,24.40
2023-01-29T01:18:38.220Z,23.20
2023-01-29T01:21:39.886Z,24.13
2023-01-29T01:24:41.600Z,25.43
2023-01-29T01:27:43.227Z,26.93
2023-01-29T01:30:45.113Z,25.43
2023-01-29T01:33:46.677Z,24.00
2023-01-29T01:36:48.603Z,26.53
2023-01-29T01:39:50.564Z,26.10
2023-01-29T01:42:56.437Z,22.77
2023-01-29T01:45:58.111Z,26.77
2023-01-29T01:49:21.690Z,24.30
2023-01-29T01:52:23.657Z,21.33
2023-01-29T01:55:28.126Z,23.30
2023-01-29T01:59:02.078Z,29.20
2023-01-29T02:02:22.489Z,25.27
2023-01-29T02:05:43.286Z,24.87
2023-01-29T02:09:08.235Z,29.80
2023-01-29T02:12:12.315Z,29.60
2023-01-29T02:15:13.930Z,23.30
2023-01-29T02:18:17.883Z,23.40
2023-01-29T02:21:25.164Z,24.87
2023-01-29T02:24:41.009Z,23.63
2023-01-29T02:27:48.747Z,22.77
2023-01-29T02:30:59.446Z,24.17
2023-01-29T02:34:07.073Z,22.17
2023-01-29T02:37:11.172Z,23.27
2023-01-29T02:40:18.671Z,20.10
2023-01-29T02:43:26.533Z,22.17
2023-01-29T02:46:31.247Z,21.10
2023-01-29T02:49:39.307Z,19.53
2023-01-29T02:52:54.311Z,18.87
2023-01-29T02:56:02.117Z,18.03
2023-01-29T02:59:10.184Z,20.97
2023-01-29T03:02:16.518Z,22.03
2023-01-29T03:05:21.863Z,18.00
2023-01-29T03:08:36.963Z,17.87
2023-01-29T03:11:41.541Z,21.03
2023-01-29T03:15:06.406Z,18.50
2023-01-29T03:18:17.731Z,16.67
2023-01-29T03:21:59.169Z,16.47
2023-01-29T03:25:21.708Z,16.10
2023-01-29T03:28:42.660Z,43.83
2023-01-29T03:32:03.532Z,18.57
2023-01-29T03:35:06.446Z,20.83
2023-01-29T03:38:12.662Z,18.60
2023-01-29T03:41:17.404Z,17.17
2023-01-29T03:44:26.506Z,15.37
2023-01-29T03:47:37.304Z,13.87
2023-01-29T03:50:41.968Z,53.73
2023-01-29T03:53:46.610Z,17.57
2023-01-29T03:56:58.140Z,16.73
2023-01-29T04:00:00.041Z,20.37
2023-01-29T04:03:23.196Z,17.07
2023-01-29T04:06:27.497Z,17.30
2023-01-29T04:10:12.471Z,16.10
2023-01-29T04:13:15.805Z,21.93
2023-01-29T04:16:32.164Z,21.23
2023-01-29T04:19:50.195Z,15.50
2023-01-29T04:22:52.413Z,14.43
2023-01-29T04:26:06.909Z,12.33
2023-01-29T04:29:30.000Z,13.60
2023-01-29T04:32:38.872Z,13.50
2023-01-29T04:36:00.233Z,14.00
2023-01-29T04:39:15.948Z,11.90
2023-01-29T04:42:26.994Z,15.73
2023-01-29T04:45:43.995Z,12.03
2023-01-29T04:49:05.352Z,11.47
2023-01-29T04:52:10.392Z,13.13
2023-01-29T04:55:15.039Z,10.80
2023-01-29T04:58:36.155Z,14.40
2023-01-29T05:01:38.696Z,15.03
2023-01-29T05:04:41.526Z,14.00
2023-01-29T05:07:43.500Z,14.33
2023-01-29T05:10:46.110Z,11.20
2023-01-29T05:13:48.619Z,14.63
2023-01-29T05:16:52.474Z,17.77
2023-01-29T05:19:55.514Z,16.00
2023-01-29T05:22:57.127Z,12.23
2023-01-29T05:25:58.827Z,11.50
2023-01-29T05:29:00.469Z,12.17
2023-01-29T05:32:02.095Z,10.60
2023-01-29T05:35:03.860Z,12.87
2023-01-29T05:38:05.485Z,12.73
2023-01-29T05:41:07.201Z,13.47
2023-01-29T05:44:10.089Z,12.40
2023-01-29T05:47:11.764Z,14.13
2023-01-29T05:50:14.279Z,20.90
2023-01-29T05:53:16.047Z,25.20
2023-01-29T05:56:17.714Z,19.80
2023-01-29T05:59:19.316Z,18.87
2023-01-29T06:02:21.351Z,17.97
2023-01-29T06:05:22.995Z,23.50
2023-01-29T06:08:24.616Z,15.63
2023-01-29T06:11:26.399Z,22.63
2023-01-29T06:14:28.207Z,13.63
2023-01-29T06:17:29.788Z,17.57
2023-01-29T06:20:31.413Z,13.70
2023-01-29T06:23:33.089Z,17.60
2023-01-29T06:26:34.986Z,18.53
2023-01-29T06:29:36.720Z,15.70
2023-01-29T06:32:41.477Z,32.77
2023-01-29T06:35:43.190Z,24.67
2023-01-29T06:38:44.952Z,22.37
2023-01-29T06:41:48.986Z,17.03
2023-01-29T06:44:50.582Z,17.20
2023-01-29T06:47:52.722Z,21.43
2023-01-29T06:50:55.236Z,24.63
2023-01-29T06:53:56.957Z,27.43
2023-01-29T06:56:59.146Z,22.30
2023-01-29T07:00:00.896Z,26.50
2023-01-29T07:03:02.753Z,26.47
2023-01-29T07:06:04.807Z,28.23
2023-01-29T07:09:06.434Z,38.33
2023-01-29T07:12:08.829Z,29.47
2023-01-29T07:15:15.685Z,34.23
2023-01-29T07:18:17.434Z,27.73
2023-01-29T07:21:19.096Z,36.73
2023-01-29T07:24:23.332Z,29.67
2023-01-29T07:27:32.476Z,33.17
2023-01-29T07:30:37.570Z,24.50
2023-01-29T07:33:39.165Z,23.63
2023-01-29T07:36:40.794Z,21.73
2023-01-29T07:39:42.465Z,26.90
2023-01-29T07:42:44.325Z,22.00
2023-01-29T07:45:46.225Z,17.27
2023-01-29T07:48:48.111Z,22.30
2023-01-29T07:51:49.783Z,19.33
2023-01-29T07:54:51.441Z,20.67
2023-01-29T07:57:56.928Z,26.33
2023-01-29T08:00:59.364Z,18.93
2023-01-29T08:04:01.261Z,16.77
2023-01-29T08:07:04.760Z,21.00
2023-01-29T08:10:06.746Z,29.10
2023-01-29T08:13:08.608Z,31.40
2023-01-29T08:16:10.393Z,28.37
2023-01-29T08:19:12.094Z,28.70
2023-01-29T08:22:15.447Z,29.73
2023-01-29T08:25:17.496Z,21.00
2023-01-29T08:28:19.404Z,18.13
2023-01-29T08:31:21.164Z,29.17
2023-01-29T08:34:23.056Z,32.10
2023-01-29T08:37:28.717Z,32.87
2023-01-29T08:40:32.034Z,33.33
2023-01-29T08:43:35.368Z,34.57
2023-01-29T08:46:37.637Z,39.70
2023-01-29T08:49:39.398Z,41.80
2023-01-29T08:52:41.143Z,35.40
2023-01-29T08:55:42.765Z,99.63
2023-01-29T08:58:44.461Z,38.60
2023-01-29T09:01:46.069Z,30.97
2023-01-29T09:04:47.728Z,34.57
2023-01-29T09:07:49.376Z,34.63
2023-01-29T09:10:51.585Z,37.87
2023-01-29T09:13:54.372Z,37.47
2023-01-29T09:16:58.144Z,32.07
2023-01-29T09:19:59.765Z,34.07
2023-01-29T09:23:05.128Z,37.70
2023-01-29T09:26:07.781Z,26.53
2023-01-29T09:29:10.758Z,27.00
2023-01-29T09:32:12.587Z,27.13
2023-01-29T09:35:14.516Z,22.50
2023-01-29T09:38:16.301Z,25.50
2023-01-29T09:41:29.845Z,41.37
2023-01-29T09:44:31.450Z,51.87
2023-01-29T09:47:34.884Z,51.40
2023-01-29T09:50:38.525Z,58.90
2023-01-29T09:53:42.857Z,52.50
2023-01-29T09:56:45.793Z,41.33
2023-01-29T09:59:47.484Z,38.13
2023-01-29T10:06:33.050Z,48.77
2023-01-29T10:09:53.594Z,191.00
2023-01-29T10:12:58.091Z,84.60
2023-01-29T10:16:08.638Z,82.03
2023-01-29T10:19:28.716Z,66.27
2023-01-29T10:22:36.892Z,44.47
2023-01-29T10:25:40.731Z,35.60
2023-01-29T10:28:46.185Z,88.07
2023-01-29T10:31:59.625Z,92.30
2023-01-29T10:35:06.489Z,74.07
2023-01-29T10:38:18.624Z,58.03
2023-01-29T10:41:39.075Z,61.67
2023-01-29T10:44:43.790Z,40.87
2023-01-29T10:47:45.479Z,45.40
2023-01-29T10:51:16.635Z,47.97
2023-01-29T10:54:33.533Z,40.57
2023-01-29T10:57:42.273Z,34.27
2023-01-29T11:00:43.990Z,34.57
2023-01-29T11:03:45.772Z,64.03
2023-01-29T11:06:49.281Z,41.17
2023-01-29T11:09:50.877Z,42.77
2023-01-29T11:12:53.203Z,51.83
2023-01-29T11:15:54.873Z,46.47
2023-01-29T11:19:01.255Z,147.43
2023-01-29T11:22:04.442Z,50.60
2023-01-29T11:25:19.559Z,37.60
2023-01-29T11:28:37.816Z,43.23
2023-01-29T11:31:40.052Z,45.27
2023-01-29T11:35:00.130Z,44.53
2023-01-29T11:38:09.676Z,42.43
2023-01-29T11:41:18.131Z,44.07
2023-01-29T11:44:19.733Z,47.87
2023-01-29T11:47:25.907Z,46.93
2023-01-29T11:50:30.765Z,52.77
2023-01-29T11:53:46.093Z,53.50
2023-01-29T11:56:48.283Z,52.63
2023-01-29T11:59:50.968Z,48.90
2023-01-29T12:03:11.469Z,48.27
2023-01-29T12:06:31.566Z,44.17
2023-01-29T12:09:33.317Z,43.73
2023-01-29T12:12:57.892Z,42.33
2023-01-29T12:16:11.833Z,34.83
2023-01-29T12:19:19.589Z,56.70
2023-01-29T12:22:23.957Z,58.70
2023-01-29T12:25:49.469Z,122.40
2023-01-29T12:29:10.983Z,35.20
2023-01-29T12:32:12.717Z,111.07
2023-01-29T12:35:20.478Z,62.17
2023-01-29T12:38:23.142Z,59.03
2023-01-29T12:41:45.141Z,43.53
2023-01-29T12:44:50.679Z,49.57
2023-01-29T12:47:55.199Z,42.70
2023-01-29T12:50:59.484Z,40.77
2023-01-29T12:54:13.072Z,57.93
2023-01-29T12:57:26.158Z,68.40
2023-01-29T13:00:30.798Z,65.73
2023-01-29T13:03:44.567Z,84.07
2023-01-29T13:06:49.692Z,70.57
2023-01-29T13:09:53.352Z,74.10
2023-01-29T13:13:01.018Z,128.20
2023-01-29T13:16:05.492Z,43.97
2023-01-29T13:19:15.069Z,48.17
2023-01-29T13:22:26.807Z,47.07
2023-01-29T13:25:28.490Z,45.23
2023-01-29T13:28:30.707Z,48.33
2023-01-29T13:31:36.869Z,51.67
2023-01-29T13:34:45.735Z,86.67
2023-01-29T13:37:48.974Z,64.20
2023-01-29T13:40:51.199Z,56.97
2023-01-29T13:43:52.992Z,58.60
2023-01-29T13:47:01.834Z,41.20
2023-01-29T13:50:08.793Z,45.93
2023-01-29T13:53:18.353Z,75.50
2023-01-29T13:56:35.365Z,45.60
2023-01-29T13:59:55.243Z,40.03
2023-01-29T14:02:56.893Z,38.23
2023-01-29T14:05:59.275Z,40.63
2023-01-29T14:09:01.699Z,48.87
2023-01-29T14:12:23.570Z,43.67
2023-01-29T14:15:26.782Z,52.67
2023-01-29T14:18:29.805Z,58.27
2023-01-29T14:21:33.281Z,50.03
2023-01-29T14:24:35.042Z,42.10
2023-01-29T14:27:37.090Z,59.70
2023-01-29T14:30:41.126Z,60.43
2023-01-29T14:33:43.622Z,39.53
2023-01-29T14:36:46.918Z,44.67
2023-01-29T14:39:50.513Z,51.47
2023-01-29T14:42:56.423Z,63.47
2023-01-29T14:46:18.009Z,49.73
2023-01-29T14:49:38.480Z,50.07
2023-01-29T14:52:42.267Z,57.20
2023-01-29T14:55:45.374Z,49.00
2023-01-29T14:58:48.363Z,55.40
2023-01-29T15:01:54.948Z,49.93
2023-01-29T15:04:58.782Z,68.63
2023-01-29T15:08:06.411Z,61.30
2023-01-29T15:11:36.429Z,62.60
2023-01-29T15:14:43.411Z,44.13
2023-01-29T15:17:48.118Z,50.17
2023-01-29T15:21:03.440Z,50.40
2023-01-29T15:24:07.232Z,49.50
2023-01-29T15:27:17.375Z,51.53
2023-01-29T15:30:22.241Z,45.07
2023-01-29T15:33:23.942Z,41.43
2023-01-29T15:36:26.795Z,46.03
2023-01-29T15:39:29.647Z,46.33
2023-01-29T15:42:41.976Z,47.63
2023-01-29T15:45:43.634Z,45.40
2023-01-29T15:48:45.686Z,48.13
2023-01-29T15:51:48.888Z,81.47
2023-01-29T15:54:51.412Z,110.17
2023-01-29T15:57:53.671Z,117.33
2023-01-29T16:00:56.813Z,120.13
2023-01-29T16:04:02.441Z,93.77
2023-01-29T16:07:04.335Z,98.23
2023-01-29T16:10:06.682Z,149.20
2023-01-29T16:13:16.546Z,127.87
2023-01-29T16:16:24.858Z,85.20
2023-01-29T16:19:28.089Z,91.37
2023-01-29T16:22:32.794Z,102.30
2023-01-29T16:25:40.996Z,79.80
2023-01-29T16:28:43.543Z,74.03
2023-01-29T16:31:46.069Z,82.73
2023-01-29T16:34:50.055Z,112.13
2023-01-29T16:38:03.391Z,97.33
2023-01-29T16:41:04.990Z,103.53
2023-01-29T16:44:15.774Z,109.13
2023-01-29T16:47:28.370Z,100.63
2023-01-29T16:50:40.547Z,76.03
2023-01-29T16:54:01.427Z,158.80
2023-01-29T16:57:03.416Z,158.33
2023-01-29T17:00:07.637Z,116.27
2023-01-29T17:03:11.142Z,124.13
2023-01-29T17:06:13.829Z,103.30
2023-01-29T17:09:27.399Z,95.27
2023-01-29T17:12:30.201Z,98.40
2023-01-29T17:15:31.911Z,87.80
2023-01-29T17:18:33.617Z,94.10
2023-01-29T17:21:35.472Z,91.17
2023-01-29T17:24:37.098Z,89.93
2023-01-29T17:27:40.878Z,85.10
2023-01-29T17:30:46.398Z,129.33
2023-01-29T17:33:52.335Z,84.33
2023-01-29T17:36:54.089Z,109.47
2023-01-29T17:39:56.354Z,84.93
2023-01-29T17:42:58.032Z,111.87
2023-01-29T17:46:00.027Z,116.30
2023-01-29T17:49:02.919Z,138.87
2023-01-29T17:52:04.605Z,140.43
2023-01-29T17:55:06.521Z,134.87
2023-01-29T17:58:16.286Z,128.73
2023-01-29T18:01:17.911Z,136.57
2023-01-29T18:04:19.718Z,139.47
2023-01-29T18:07:21.506Z,107.60
2023-01-29T18:10:23.209Z,130.43
2023-01-29T18:13:25.464Z,128.00
2023-01-29T18:16:27.795Z,122.30
2023-01-29T18:19:31.137Z,115.97
2023-01-29T18:22:33.007Z,129.37
2023-01-29T18:25:34.877Z,140.77
2023-01-29T18:28:36.596Z,144.77
2023-01-29T18:31:38.341Z,144.07
2023-01-29T18:34:41.376Z,138.13
2023-01-29T18:37:43.233Z,128.43
2023-01-29T18:40:44.868Z,195.87
2023-01-29T18:43:46.586Z,142.57
2023-01-29T18:46:48.284Z,120.67
2023-01-29T18:49:51.895Z,128.43
2023-01-29T18:52:53.987Z,118.73
2023-01-29T18:55:59.610Z,115.70
2023-01-29T18:59:01.233Z,112.00
2023-01-29T19:02:02.988Z,166.30
2023-01-29T19:05:04.835Z,186.63
2023-01-29T19:08:06.755Z,209.10
2023-01-29T19:11:09.064Z,166.57
2023-01-29T19:14:10.876Z,187.83
2023-01-29T19:17:12.580Z,140.17
2023-01-29T19:20:14.276Z,152.83
2023-01-29T19:23:15.988Z,255.40
2023-01-29T19:26:18.045Z,168.90
2023-01-29T19:29:20.292Z,141.03
2023-01-29T19:32:22.688Z,153.73
2023-01-29T19:35:24.660Z,139.37
2023-01-29T19:38:26.966Z,138.03
2023-01-29T19:41:29.127Z,162.50
2023-01-29T19:44:31.021Z,138.20
2023-01-29T19:47:33.755Z,161.83
2023-01-29T19:50:35.474Z,228.83
2023-01-29T19:53:37.562Z,241.30
2023-01-29T19:56:39.633Z,204.57
2023-01-29T19:59:41.360Z,194.60
2023-01-29T20:02:42.993Z,168.17
2023-01-29T20:05:44.561Z,157.27
2023-01-29T20:08:46.927Z,167.60
2023-01-29T20:11:48.693Z,147.83
2023-01-29T20:14:52.167Z,153.10
2023-01-29T20:17:56.526Z,152.00
2023-01-29T20:20:59.010Z,157.20
2023-01-29T20:24:00.774Z,133.20
2023-01-29T20:27:03.063Z,119.77
2023-01-29T20:30:05.008Z,131.13
2023-01-29T20:33:07.369Z,140.70
2023-01-29T20:36:10.314Z,133.90
2023-01-29T20:39:13.497Z,130.20
2023-01-29T20:42:15.150Z,137.17
2023-01-29T20:45:16.824Z,128.73
2023-01-29T20:48:18.816Z,137.20
2023-01-29T20:51:20.694Z,92.63
2023-01-29T20:54:22.390Z,57.13
2023-01-29T20:57:24.427Z,65.97
2023-01-29T21:00:26.045Z,59.03
2023-01-29T21:03:28.039Z,53.37
2023-01-29T21:06:29.807Z,54.73
2023-01-29T21:09:31.412Z,55.73
2023-01-29T21:12:33.129Z,47.97
2023-01-29T21:15:34.800Z,44.10
2023-01-29T21:18:39.691Z,48.43
2023-01-29T21:21:41.345Z,50.40
2023-01-29T21:24:43.142Z,44.40
2023-01-29T21:27:45.558Z,45.03
2023-01-29T21:30:47.948Z,45.47
2023-01-29T21:33:49.670Z,44.20
2023-01-29T21:36:51.310Z,42.90
2023-01-29T21:39:52.924Z,44.27
2023-01-29T21:43:12.871Z,42.33
2023-01-29T21:46:15.896Z,46.30
2023-01-29T21:49:17.677Z,43.40
2023-01-29T21:52:19.683Z,45.93
2023-01-29T21:55:21.634Z,39.00
2023-01-29T21:58:24.805Z,46.97
2023-01-29T22:01:37.803Z,42.23
2023-01-29T22:04:40.865Z,38.03
2023-01-29T22:07:42.796Z,41.87
2023-01-29T22:10:44.784Z,35.17
2023-01-29T22:13:47.160Z,40.17
2023-01-29T22:16:48.831Z,37.77
2023-01-29T22:19:50.555Z,33.77
2023-01-29T22:22:52.316Z,32.73
2023-01-29T22:25:54.222Z,28.57
2023-01-29T22:28:56.239Z,31.53
2023-01-29T22:31:58.098Z,27.67
2023-01-29T22:34:59.901Z,33.33
2023-01-29T22:38:01.544Z,29.97
2023-01-29T22:41:03.668Z,30.20
2023-01-29T22:44:05.505Z,29.13
2023-01-29T22:47:07.098Z,37.10
2023-01-29T22:50:09.065Z,35.60
2023-01-29T22:53:10.638Z,33.80
2023-01-29T22:56:12.522Z,24.93
2023-01-29T22:59:14.157Z,31.27
2023-01-29T23:02:15.793Z,30.03
2023-01-29T23:05:18.200Z,29.93
2023-01-29T23:08:19.799Z,29.40
2023-01-29T23:11:23.574Z,30.27
2023-01-29T23:14:25.198Z,34.33
2023-01-29T23:17:26.869Z,32.17
2023-01-29T23:20:28.580Z,30.87
2023-01-29T23:23:30.495Z,30.50
2023-01-29T23:26:50.658Z,32.23
2023-01-29T23:29:52.323Z,30.57
2023-01-29T23:32:53.900Z,30.27
2023-01-29T23:35:55.506Z,28.00
2023-01-29T23:38:57.124Z,26.63
2023-01-29T23:41:58.788Z,28.47
2023-01-29T23:45:00.455Z,24.47
2023-01-29T23:48:02.144Z,26.83
2023-01-29T23:51:03.992Z,25.37
2023-01-29T23:54:05.656Z,23.87
2023-01-29T23:57:07.341Z,25.90
